Station Historical Data
Daily Summary for April 27, 2017 Units:  English    Metric   Both
« Previous Day
Next Day »
Daily Weekly Monthly Yearly Custom
  High: Low: Average:
Temperature: 86.9 °F 54.7 °F 68.7 °F
Dew Point: 64.4 °F 46.9 °F 56.6 °F
Humidity: 90% 37% 69%
Wind Speed: 17.0mph 0.0mph 3.7mph
Wind Gust: 28.0mph - -
Wind- - South
Pressure: 29.75 in 29.49 in -
Precipitation: 0.13 in    
Historical Graphs
 
 
Tabular Data for April 27, 2017
Time Temperature Dew Point Pressure Wind Wind Speed Wind Gust Humidity Rainfall Rate (Hourly)
00:00 58.3 °F 53.8 °F 29.68 in Calm     85% 0.00 in
00:05 58.1 °F 53.9 °F 29.68 in Calm     86% 0.00 in
00:10 57.8 °F 53.3 °F 29.68 in Calm     85% 0.00 in
00:15 57.5 °F 53.3 °F 29.68 in Calm     86% 0.00 in
00:20 57.4 °F 53.6 °F 29.68 in Calm     87% 0.00 in
00:25 57.2 °F 53.4 °F 29.68 in Calm     87% 0.00 in
00:30 57.3 °F 53.5 °F 29.68 in Calm     87% 0.00 in
00:35 57.1 °F 53.3 °F 29.68 in Calm     87% 0.00 in
00:40 57.1 °F 53.6 °F 29.68 in Calm     88% 0.00 in
00:45 57.2 °F 53.4 °F 29.68 in Calm     87% 0.00 in
00:50 57.0 °F 53.2 °F 29.68 in Calm     87% 0.00 in
00:55 56.6 °F 52.8 °F 29.68 in Calm     87% 0.00 in
01:00 56.8 °F 53.3 °F 29.68 in Calm     88% 0.00 in
01:05 56.7 °F 53.2 °F 29.68 in Calm     88% 0.00 in
01:10 56.9 °F 53.4 °F 29.68 in Calm     88% 0.00 in
01:15 57.1 °F 53.6 °F 29.68 in Calm     88% 0.00 in
01:20 57.1 °F 53.6 °F 29.68 in Calm     88% 0.00 in
01:25 57.0 °F 53.5 °F 29.68 in Calm     88% 0.00 in
01:30 56.9 °F 53.4 °F 29.67 in Calm     88% 0.00 in
01:35 56.9 °F 53.4 °F 29.67 in Calm     88% 0.00 in
01:40 56.7 °F 53.2 °F 29.67 in Calm     88% 0.00 in
01:45 56.5 °F 53.3 °F 29.67 in Calm     89% 0.00 in
01:50 56.2 °F 53.0 °F 29.67 in Calm     89% 0.00 in
01:55 56.4 °F 53.2 °F 29.67 in Calm     89% 0.00 in
02:00 56.3 °F 53.1 °F 29.67 in Calm     89% 0.00 in
02:05 56.5 °F 53.6 °F 29.67 in Calm     90% 0.00 in
02:10 56.4 °F 53.2 °F 29.67 in Calm     89% 0.00 in
02:15 56.4 °F 53.5 °F 29.67 in Calm     90% 0.00 in
02:20 56.8 °F 53.9 °F 29.67 in Calm     90% 0.00 in
02:25 56.9 °F 54.0 °F 29.67 in Calm     90% 0.00 in
02:30 56.8 °F 53.9 °F 29.67 in Calm     90% 0.00 in
02:35 56.9 °F 54.0 °F 29.67 in Calm     90% 0.00 in
02:40 57.0 °F 54.1 °F 29.67 in Calm     90% 0.00 in
02:45 57.1 °F 54.2 °F 29.66 in Calm     90% 0.00 in
02:50 57.2 °F 54.0 °F 29.67 in Calm     89% 0.00 in
02:55 57.3 °F 54.1 °F 29.67 in Calm     89% 0.00 in
03:00 57.3 °F 54.1 °F 29.66 in Calm     89% 0.00 in
03:05 57.6 °F 54.1 °F 29.66 in Calm     88% 0.00 in
03:10 57.5 °F 54.0 °F 29.66 in Calm     88% 0.00 in
03:15 57.6 °F 54.1 °F 29.66 in Calm     88% 0.00 in
03:20 57.9 °F 54.1 °F 29.66 in Calm     87% 0.00 in
03:25 58.1 °F 54.2 °F 29.66 in Calm     87% 0.00 in
03:30 58.1 °F 53.9 °F 29.66 in Calm     86% 0.00 in
03:35 58.2 °F 54.0 °F 29.65 in Calm     86% 0.00 in
03:40 58.4 °F 53.9 °F 29.65 in Calm     85% 0.00 in
03:45 58.5 °F 54.0 °F 29.65 in Calm     85% 0.00 in
03:50 58.6 °F 54.1 °F 29.65 in Calm   1.0 mph 85% 0.00 in
03:55 58.6 °F 54.1 °F 29.65 in Calm   2.0 mph 85% 0.00 in
04:00 58.4 °F 53.9 °F 29.66 in SSE 1.0 mph 2.0 mph 85% 0.00 in
04:05 58.4 °F 53.9 °F 29.65 in Calm   2.0 mph 85% 0.00 in
04:10 58.3 °F 53.8 °F 29.65 in Calm   2.0 mph 85% 0.00 in
04:15 58.3 °F 53.8 °F 29.65 in Calm   2.0 mph 85% 0.00 in
04:20 58.2 °F 53.7 °F 29.65 in Calm   1.0 mph 85% 0.00 in
04:25 58.2 °F 53.7 °F 29.65 in Calm     85% 0.00 in
04:30 58.1 °F 53.6 °F 29.65 in Calm     85% 0.00 in
04:35 58.2 °F 53.7 °F 29.65 in Calm     85% 0.00 in
04:40 58.1 °F 53.6 °F 29.65 in Calm     85% 0.00 in
04:45 58.0 °F 53.5 °F 29.65 in Calm     85% 0.00 in
04:50 57.9 °F 53.4 °F 29.65 in Calm     85% 0.00 in
04:55 57.8 °F 53.6 °F 29.65 in Calm     86% 0.00 in
05:00 57.4 °F 53.2 °F 29.65 in Calm     86% 0.00 in
05:05 57.3 °F 53.1 °F 29.65 in Calm     86% 0.00 in
05:10 57.2 °F 53.0 °F 29.65 in Calm     86% 0.00 in
05:15 56.8 °F 52.7 °F 29.66 in Calm     86% 0.00 in
05:20 56.6 °F 52.8 °F 29.66 in Calm     87% 0.00 in
05:25 56.9 °F 53.1 °F 29.66 in Calm     87% 0.00 in
05:35 57.2 °F 53.4 °F 29.66 in Calm     87% 0.00 in
05:40 57.3 °F 53.5 °F 29.66 in Calm     87% 0.00 in
05:45 57.4 °F 53.6 °F 29.66 in Calm     87% 0.00 in
05:50 57.6 °F 53.8 °F 29.66 in Calm     87% 0.00 in
05:55 57.6 °F 53.4 °F 29.66 in Calm     86% 0.00 in
06:00 57.8 °F 53.6 °F 29.66 in Calm     86% 0.00 in
06:05 57.9 °F 53.7 °F 29.66 in Calm     86% 0.00 in
06:10 58.0 °F 53.8 °F 29.66 in Calm     86% 0.00 in
06:15 58.1 °F 53.9 °F 29.66 in Calm     86% 0.00 in
06:20 58.2 °F 53.7 °F 29.66 in Calm     85% 0.00 in
06:25 58.5 °F 54.0 °F 29.66 in Calm     85% 0.00 in
06:30 58.6 °F 54.1 °F 29.66 in Calm     85% 0.00 in
06:35 58.7 °F 54.2 °F 29.66 in Calm     85% 0.00 in
06:40 58.8 °F 54.3 °F 29.66 in Calm     85% 0.00 in
06:45 59.1 °F 54.3 °F 29.66 in Calm     84% 0.00 in
06:50 59.3 °F 54.8 °F 29.65 in Calm     85% 0.00 in
06:55 59.5 °F 54.7 °F 29.65 in Calm     84% 0.00 in
07:00 60.0 °F 55.2 °F 29.66 in Calm     84% 0.00 in
07:05 60.4 °F 55.2 °F 29.66 in Calm     83% 0.00 in
07:10 60.7 °F 55.5 °F 29.66 in Calm     83% 0.00 in
07:15 61.3 °F 55.8 °F 29.66 in Calm     82% 0.00 in
07:20 62.0 °F 56.1 °F 29.66 in Calm   5.0 mph 81% 0.00 in
07:25 62.6 °F 56.3 °F 29.66 in SE 1.0 mph 5.0 mph 80% 0.00 in
07:30 63.2 °F 56.6 °F 29.66 in SE 1.0 mph 4.0 mph 79% 0.00 in
07:35 63.7 °F 57.1 °F 29.66 in SE 2.0 mph 4.0 mph 79% 0.00 in
07:40 64.0 °F 57.0 °F 29.66 in ESE 3.0 mph 5.0 mph 78% 0.00 in
07:45 64.5 °F 57.1 °F 29.66 in SE 2.0 mph 5.0 mph 77% 0.00 in
07:50 65.1 °F 57.3 °F 29.66 in SE 3.0 mph 7.0 mph 76% 0.00 in
07:55 65.5 °F 57.4 °F 29.67 in South 1.0 mph 6.0 mph 75% 0.00 in
08:00 66.1 °F 57.6 °F 29.67 in SSE 5.0 mph 5.0 mph 74% 0.00 in
08:05 66.4 °F 57.9 °F 29.67 in SSE 2.0 mph 5.0 mph 74% 0.00 in
08:10 66.9 °F 58.0 °F 29.67 in SSE 3.0 mph 7.0 mph 73% 0.00 in
08:15 67.3 °F 58.0 °F 29.67 in SSE 3.0 mph 8.0 mph 72% 0.00 in
08:20 67.4 °F 58.1 °F 29.67 in SSE 3.0 mph 7.0 mph 72% 0.00 in
08:25 67.7 °F 58.0 °F 29.67 in SSE 5.0 mph 7.0 mph 71% 0.00 in
08:30 68.2 °F 58.0 °F 29.67 in ESE 3.0 mph 5.0 mph 70% 0.00 in
08:35 68.8 °F 58.6 °F 29.66 in SE 2.0 mph 5.0 mph 70% 0.00 in
08:40 69.3 °F 58.7 °F 29.66 in SE 3.0 mph 7.0 mph 69% 0.00 in
08:45 70.1 °F 59.5 °F 29.66 in ESE 3.0 mph 7.0 mph 69% 0.00 in
08:50 70.3 °F 59.2 °F 29.66 in ESE 3.0 mph 7.0 mph 68% 0.00 in
08:55 70.6 °F 59.1 °F 29.66 in SE 3.0 mph 7.0 mph 67% 0.00 in
09:00 70.7 °F 59.2 °F 29.66 in SE 3.0 mph 7.0 mph 67% 0.00 in
09:05 71.1 °F 59.6 °F 29.66 in SE 3.0 mph 7.0 mph 67% 0.00 in
09:10 71.3 °F 59.4 °F 29.66 in ESE 4.0 mph 7.0 mph 66% 0.00 in
09:15 71.9 °F 59.9 °F 29.66 in East 2.0 mph 6.0 mph 66% 0.00 in
09:20 72.4 °F 60.0 °F 29.66 in Calm   6.0 mph 65% 0.00 in
09:25 72.9 °F 60.0 °F 29.66 in East 1.0 mph 5.0 mph 64% 0.00 in
09:30 73.4 °F 60.5 °F 29.66 in ESE 2.0 mph 3.0 mph 64% 0.00 in
09:35 74.0 °F 61.0 °F 29.65 in SSE 4.0 mph 4.0 mph 64% 0.00 in
09:40 74.2 °F 60.3 °F 29.65 in SE 3.0 mph 7.0 mph 62% 0.00 in
09:45 74.8 °F 60.4 °F 29.65 in SE 3.0 mph 7.0 mph 61% 0.00 in
09:50 75.7 °F 61.3 °F 29.66 in SE 2.0 mph 6.0 mph 61% 0.00 in
09:55 76.6 °F 61.2 °F 29.65 in South 2.0 mph 6.0 mph 59% 0.00 in
10:00 77.2 °F 60.8 °F 29.66 in SSW 3.0 mph 6.0 mph 57% 0.00 in
10:05 76.7 °F 59.8 °F 29.66 in SSW 3.0 mph 8.0 mph 56% 0.00 in
10:10 76.5 °F 60.6 °F 29.66 in South 4.0 mph 7.0 mph 58% 0.00 in
10:15 76.4 °F 59.5 °F 29.66 in SW 4.0 mph 7.0 mph 56% 0.00 in
10:20 76.2 °F 59.4 °F 29.66 in SSW 3.0 mph 9.0 mph 56% 0.00 in
10:25 76.2 °F 60.3 °F 29.66 in SSW 3.0 mph 8.0 mph 58% 0.00 in
10:30 76.2 °F 59.4 °F 29.66 in SSW 5.0 mph 9.0 mph 56% 0.00 in
10:35 76.5 °F 60.1 °F 29.66 in SSE 3.0 mph 8.0 mph 57% 0.00 in
10:40 77.1 °F 60.7 °F 29.66 in SSW 4.0 mph 8.0 mph 57% 0.00 in
10:45 78.0 °F 60.5 °F 29.66 in SSW 5.0 mph 8.0 mph 55% 0.00 in
10:50 79.0 °F 61.5 °F 29.66 in SSW 5.0 mph 10.0 mph 55% 0.00 in
10:55 79.4 °F 61.8 °F 29.66 in SSW 4.0 mph 11.0 mph 55% 0.00 in
11:00 79.6 °F 61.5 °F 29.66 in SSW 4.0 mph 11.0 mph 54% 0.00 in
11:05 80.2 °F 61.0 °F 29.65 in SSW 4.0 mph 8.0 mph 52% 0.00 in
11:10 80.6 °F 61.3 °F 29.65 in South 5.0 mph 10.0 mph 52% 0.00 in
11:15 80.9 °F 61.6 °F 29.65 in SSW 6.0 mph 8.0 mph 52% 0.00 in
11:20 80.9 °F 60.5 °F 29.64 in SSW 7.0 mph 9.0 mph 50% 0.00 in
11:25 80.7 °F 60.3 °F 29.64 in South 4.0 mph 9.0 mph 50% 0.00 in
11:30 81.2 °F 61.4 °F 29.63 in SE 8.0 mph 8.0 mph 51% 0.00 in
11:35 81.9 °F 61.4 °F 29.64 in South 7.0 mph 8.0 mph 50% 0.00 in
11:40 82.0 °F 61.0 °F 29.63 in South 5.0 mph 10.0 mph 49% 0.00 in
11:45 82.1 °F 63.3 °F 29.63 in South 4.0 mph 10.0 mph 53% 0.00 in
11:50 82.1 °F 61.0 °F 29.64 in South 4.0 mph 11.0 mph 49% 0.00 in
11:55 82.3 °F 61.2 °F 29.63 in SSW 5.0 mph 11.0 mph 49% 0.00 in
12:00 82.8 °F 61.7 °F 29.63 in SSE 4.0 mph 11.0 mph 49% 0.00 in
12:05 83.2 °F 61.5 °F 29.63 in South 3.0 mph 8.0 mph 48% 0.00 in
12:10 83.5 °F 62.9 °F 29.62 in SSE 3.0 mph 8.0 mph 50% 0.00 in
12:15 83.2 °F 61.5 °F 29.62 in South 5.0 mph 11.0 mph 48% 0.00 in
12:20 83.5 °F 62.3 °F 29.61 in SSW 4.0 mph 9.0 mph 49% 0.00 in
12:25 84.1 °F 62.9 °F 29.61 in South 6.0 mph 7.0 mph 49% 0.00 in
12:30 83.5 °F 60.5 °F 29.61 in SSW 3.0 mph 8.0 mph 46% 0.00 in
12:35 83.9 °F 61.5 °F 29.60 in South 2.0 mph 9.0 mph 47% 0.00 in
12:40 84.4 °F 62.0 °F 29.60 in SSW 4.0 mph 10.0 mph 47% 0.00 in
12:45 84.8 °F 61.1 °F 29.60 in SSW 3.0 mph 10.0 mph 45% 0.00 in
12:55 83.9 °F 61.5 °F 29.59 in SSE 2.0 mph 10.0 mph 47% 0.00 in
13:00 83.6 °F 63.0 °F 29.59 in SSW 3.0 mph 10.0 mph 50% 0.00 in
13:05 83.8 °F 62.6 °F 29.58 in South 5.0 mph 10.0 mph 49% 0.00 in
13:10 84.0 °F 62.8 °F 29.58 in SSW 3.0 mph 8.0 mph 49% 0.00 in
13:15 84.1 °F 62.3 °F 29.58 in South 3.0 mph 7.0 mph 48% 0.00 in
13:20 85.3 °F 62.8 °F 29.58 in South 3.0 mph 9.0 mph 47% 0.00 in
13:25 85.2 °F 60.8 °F 29.58 in SE 4.0 mph 11.0 mph 44% 0.00 in
13:30 85.8 °F 62.0 °F 29.57 in South 4.0 mph 7.0 mph 45% 0.00 in
13:35 86.2 °F 61.1 °F 29.57 in SSE 5.0 mph 14.0 mph 43% 0.00 in
13:40 85.4 °F 60.4 °F 29.57 in South 1.0 mph 13.0 mph 43% 0.00 in
13:45 85.6 °F 61.8 °F 29.57 in SSW 6.0 mph 10.0 mph 45% 0.00 in
13:50 85.9 °F 60.1 °F 29.57 in SE 1.0 mph 10.0 mph 42% 0.00 in
13:55 85.6 °F 59.9 °F 29.56 in South 8.0 mph 9.0 mph 42% 0.00 in
14:00 85.2 °F 61.5 °F 29.56 in SE 5.0 mph 12.0 mph 45% 0.00 in
14:05 85.3 °F 60.9 °F 29.55 in SE 6.0 mph 12.0 mph 44% 0.00 in
14:10 86.4 °F 64.4 °F 29.55 in SE 5.0 mph 11.0 mph 48% 0.00 in
14:15 86.2 °F 61.7 °F 29.55 in SE 5.0 mph 13.0 mph 44% 0.00 in
14:20 85.4 °F 59.0 °F 29.54 in SE 6.0 mph 13.0 mph 41% 0.00 in
14:25 85.2 °F 60.2 °F 29.54 in SE 5.0 mph 12.0 mph 43% 0.00 in
14:30 85.8 °F 59.4 °F 29.54 in SSE 9.0 mph 13.0 mph 41% 0.00 in
14:35 85.5 °F 59.8 °F 29.54 in SSE 6.0 mph 13.0 mph 42% 0.00 in
14:40 85.5 °F 60.4 °F 29.54 in SSE 6.0 mph 14.0 mph 43% 0.00 in
14:45 86.1 °F 59.0 °F 29.54 in SSE 13.0 mph 13.0 mph 40% 0.00 in
14:50 85.3 °F 59.6 °F 29.54 in SE 8.0 mph 13.0 mph 42% 0.00 in
14:55 85.9 °F 56.6 °F 29.54 in SSW 4.0 mph 14.0 mph 37% 0.00 in
15:00 86.5 °F 59.3 °F 29.54 in SSE 7.0 mph 13.0 mph 40% 0.00 in
15:05 86.9 °F 59.0 °F 29.54 in South 6.0 mph 14.0 mph 39% 0.00 in
15:10 86.5 °F 60.0 °F 29.55 in SSE 8.0 mph 12.0 mph 41% 0.00 in
15:15 86.0 °F 58.9 °F 29.54 in SSW 7.0 mph 14.0 mph 40% 0.00 in
15:20 86.5 °F 57.1 °F 29.54 in SSW 4.0 mph 11.0 mph 37% 0.00 in
15:25 86.1 °F 57.5 °F 29.54 in SSW 5.0 mph 10.0 mph 38% 0.00 in
15:30 85.9 °F 58.8 °F 29.54 in South 5.0 mph 16.0 mph 40% 0.00 in
15:35 85.4 °F 59.7 °F 29.54 in South 4.0 mph 16.0 mph 42% 0.00 in
15:40 84.7 °F 57.7 °F 29.54 in South 5.0 mph 11.0 mph 40% 0.00 in
15:45 84.4 °F 57.4 °F 29.54 in South 6.0 mph 11.0 mph 40% 0.00 in
15:50 84.0 °F 57.1 °F 29.53 in South 8.0 mph 13.0 mph 40% 0.00 in
15:55 84.2 °F 57.9 °F 29.53 in SE 7.0 mph 11.0 mph 41% 0.00 in
16:00 84.1 °F 57.2 °F 29.52 in South 7.0 mph 11.0 mph 40% 0.00 in
16:05 84.7 °F 58.4 °F 29.52 in South 3.0 mph 9.0 mph 41% 0.00 in
16:10 84.4 °F 58.1 °F 29.52 in SSW 9.0 mph 12.0 mph 41% 0.00 in
16:15 84.4 °F 58.1 °F 29.52 in South 9.0 mph 12.0 mph 41% 0.00 in
16:20 84.3 °F 58.0 °F 29.52 in South 4.0 mph 8.0 mph 41% 0.00 in
16:25 84.0 °F 59.1 °F 29.51 in South 3.0 mph 9.0 mph 43% 0.00 in
16:30 84.3 °F 58.7 °F 29.51 in SSW 4.0 mph 10.0 mph 42% 0.00 in
16:35 83.8 °F 58.3 °F 29.51 in South 5.0 mph 10.0 mph 42% 0.00 in
16:40 83.9 °F 59.0 °F 29.50 in South 5.0 mph 10.0 mph 43% 0.00 in
16:45 84.2 °F 59.3 °F 29.50 in SSW 3.0 mph 9.0 mph 43% 0.00 in
16:50 84.1 °F 58.5 °F 29.51 in SSE 4.0 mph 11.0 mph 42% 0.00 in
16:55 84.0 °F 58.4 °F 29.50 in SSE 5.0 mph 11.0 mph 42% 0.00 in
17:00 84.5 °F 58.9 °F 29.50 in South 5.0 mph 10.0 mph 42% 0.00 in
17:05 85.7 °F 59.3 °F 29.50 in SSE 5.0 mph 11.0 mph 41% 0.00 in
17:10 85.6 °F 59.9 °F 29.50 in SSE 5.0 mph 11.0 mph 42% 0.00 in
17:15 85.1 °F 58.8 °F 29.50 in East 5.0 mph 11.0 mph 41% 0.00 in
17:20 85.1 °F 60.1 °F 29.49 in South 4.0 mph 11.0 mph 43% 0.00 in
17:25 84.9 °F 58.6 °F 29.49 in SSE 6.0 mph 12.0 mph 41% 0.00 in
17:30 84.9 °F 59.9 °F 29.49 in SSW 4.0 mph 11.0 mph 43% 0.00 in
17:35 84.9 °F 59.2 °F 29.49 in SW 3.0 mph 10.0 mph 42% 0.00 in
17:40 84.6 °F 59.6 °F 29.49 in South 4.0 mph 7.0 mph 43% 0.00 in
17:45 84.5 °F 59.5 °F 29.49 in South 3.0 mph 9.0 mph 43% 0.00 in
17:50 84.6 °F 59.6 °F 29.49 in SSW 3.0 mph 9.0 mph 43% 0.00 in
17:55 84.5 °F 58.9 °F 29.49 in SSW 3.0 mph 9.0 mph 42% 0.00 in
18:00 83.9 °F 60.9 °F 29.49 in SSW 4.0 mph 8.0 mph 46% 0.00 in
18:05 83.4 °F 58.6 °F 29.49 in SSW 4.0 mph 7.0 mph 43% 0.00 in
18:10 83.0 °F 59.5 °F 29.49 in SW 4.0 mph 7.0 mph 45% 0.00 in
18:15 82.5 °F 59.0 °F 29.49 in SW 4.0 mph 6.0 mph 45% 0.00 in
18:20 80.9 °F 58.2 °F 29.52 in WNW 7.0 mph 26.0 mph 46% 0.00 in
18:25 75.4 °F 57.6 °F 29.53 in WSW 11.0 mph 26.0 mph 54% 0.00 in
18:30 73.1 °F 57.9 °F 29.53 in WNW 8.0 mph 23.0 mph 59% 0.00 in
18:35 72.2 °F 58.0 °F 29.56 in WSW 9.0 mph 18.0 mph 61% 0.00 in
18:40 71.7 °F 58.4 °F 29.56 in SW 14.0 mph 18.0 mph 63% 0.00 in
18:45 71.4 °F 58.6 °F 29.57 in WNW 9.0 mph 22.0 mph 64% 0.00 in
18:50 71.2 °F 58.8 °F 29.58 in WNW 12.0 mph 22.0 mph 65% 0.00 in
18:55 71.1 °F 58.7 °F 29.58 in WSW 10.0 mph 22.0 mph 65% 0.00 in
19:00 70.8 °F 58.9 °F 29.58 in WSW 9.0 mph 17.0 mph 66% 0.00 in
19:05 70.4 °F 58.9 °F 29.60 in WSW 7.0 mph 14.0 mph 67% 0.00 in
19:10 69.9 °F 58.9 °F 29.61 in SW 6.0 mph 14.0 mph 68% 0.00 in
19:15 69.4 °F 58.8 °F 29.60 in SW 7.0 mph 14.0 mph 69% 0.00 in
19:20 69.0 °F 58.4 °F 29.61 in South 8.0 mph 15.0 mph 69% 0.00 in
19:25 66.2 °F 55.3 °F 29.61 in SW 8.0 mph 15.0 mph 68% 0.00 in
19:30 63.2 °F 54.8 °F 29.62 in SSW 5.0 mph 13.0 mph 74% 0.00 in
19:35 61.9 °F 54.6 °F 29.63 in SSW 7.0 mph 14.0 mph 77% 0.00 in
19:40 61.4 °F 54.8 °F 29.63 in SSW 5.0 mph 10.0 mph 79% 0.00 in
19:45 61.2 °F 55.0 °F 29.64 in SW 4.0 mph 11.0 mph 80% 0.00 in
19:50 61.2 °F 55.3 °F 29.64 in SW 6.0 mph 8.0 mph 81% 0.00 in
19:55 61.2 °F 55.3 °F 29.65 in SW 6.0 mph 13.0 mph 81% 0.00 in
20:00 61.1 °F 55.2 °F 29.64 in SW 7.0 mph 14.0 mph 81% 0.00 in
20:05 60.9 °F 55.0 °F 29.64 in SW 11.0 mph 14.0 mph 81% 0.00 in
20:10 60.8 °F 55.3 °F 29.65 in SW 4.0 mph 11.0 mph 82% 0.00 in
20:15 60.8 °F 55.3 °F 29.68 in SW 8.0 mph 12.0 mph 82% 0.00 in
20:20 60.8 °F 54.9 °F 29.67 in SW 4.0 mph 15.0 mph 81% 0.00 in
20:25 60.7 °F 54.8 °F 29.66 in SW 8.0 mph 15.0 mph 81% 0.00 in
20:30 60.3 °F 55.1 °F 29.65 in WSW 6.0 mph 15.0 mph 83% 0.00 in
20:35 59.9 °F 55.1 °F 29.66 in WSW 5.0 mph 11.0 mph 84% 0.01 in
20:40 59.7 °F 55.2 °F 29.67 in SW 4.0 mph 11.0 mph 85% 0.03 in
20:45 59.7 °F 55.5 °F 29.68 in South 7.0 mph 11.0 mph 86% 0.04 in
20:50 59.6 °F 55.4 °F 29.68 in SW 2.0 mph 12.0 mph 86% 0.04 in
20:55 59.4 °F 55.2 °F 29.68 in WSW 6.0 mph 12.0 mph 86% 0.04 in
21:00 59.3 °F 55.4 °F 29.68 in West 6.0 mph 9.0 mph 87% 0.04 in
21:05 59.2 °F 55.3 °F 29.68 in SW 2.0 mph 11.0 mph 87% 0.04 in
21:10 59.1 °F 55.2 °F 29.70 in SSW 6.0 mph 11.0 mph 87% 0.06 in
21:15 59.0 °F 55.4 °F 29.70 in SSW 5.0 mph 12.0 mph 88% 0.06 in
21:20 59.0 °F 55.4 °F 29.70 in SSW 6.0 mph 12.0 mph 88% 0.07 in
21:25 59.0 °F 55.4 °F 29.69 in SSW 6.0 mph 12.0 mph 88% 0.08 in
21:30 58.9 °F 55.4 °F 29.67 in SW 5.0 mph 10.0 mph 88% 0.08 in
21:35 58.7 °F 55.5 °F 29.67 in WSW 6.0 mph 14.0 mph 89% 0.09 in
21:40 58.6 °F 55.4 °F 29.67 in WSW 6.0 mph 14.0 mph 89% 0.09 in
21:45 58.5 °F 55.3 °F 29.68 in WSW 6.0 mph 12.0 mph 89% 0.09 in
21:50 58.5 °F 55.3 °F 29.68 in WSW 6.0 mph 12.0 mph 89% 0.09 in
21:55 58.5 °F 55.3 °F 29.67 in WSW 6.0 mph 12.0 mph 89% 0.09 in
22:00 58.4 °F 55.2 °F 29.68 in West 6.0 mph 11.0 mph 89% 0.09 in
22:05 58.3 °F 54.8 °F 29.70 in West 3.0 mph 11.0 mph 88% 0.09 in
22:10 58.3 °F 54.8 °F 29.71 in SW 5.0 mph 11.0 mph 88% 0.07 in
22:15 58.2 °F 54.3 °F 29.72 in SW 7.0 mph 14.0 mph 87% 0.07 in
22:20 58.0 °F 53.8 °F 29.73 in SW 6.0 mph 18.0 mph 86% 0.06 in
22:25 57.8 °F 53.3 °F 29.73 in SW 6.0 mph 18.0 mph 85% 0.05 in
22:30 57.6 °F 52.8 °F 29.73 in SW 7.0 mph 14.0 mph 84% 0.05 in
22:35 57.3 °F 52.2 °F 29.73 in SW 8.0 mph 15.0 mph 83% 0.03 in
22:40 57.3 °F 51.5 °F 29.73 in SW 8.0 mph 16.0 mph 81% 0.01 in
22:45 57.4 °F 51.3 °F 29.73 in SW 8.0 mph 19.0 mph 80% 0.00 in
22:50 57.4 °F 50.6 °F 29.73 in WSW 10.0 mph 16.0 mph 78% 0.00 in
22:55 57.3 °F 50.1 °F 29.74 in SW 8.0 mph 16.0 mph 77% 0.00 in
23:00 57.0 °F 49.5 °F 29.74 in SSW 6.0 mph 22.0 mph 76% 0.00 in
23:05 56.7 °F 49.2 °F 29.74 in WSW 6.0 mph 16.0 mph 76% 0.00 in
23:10 56.4 °F 48.9 °F 29.74 in SSW 17.0 mph 20.0 mph 76% 0.00 in
23:15 56.1 °F 48.6 °F 29.75 in South 8.0 mph 21.0 mph 76% 0.00 in
23:20 55.9 °F 48.4 °F 29.74 in SW 10.0 mph 22.0 mph 76% 0.00 in
23:25 55.7 °F 48.2 °F 29.74 in SW 10.0 mph 24.0 mph 76% 0.00 in
23:30 55.7 °F 47.9 °F 29.74 in SW 11.0 mph 24.0 mph 75% 0.00 in
23:35 55.5 °F 47.7 °F 29.74 in SW 11.0 mph 23.0 mph 75% 0.00 in
23:40 55.4 °F 47.2 °F 29.74 in SW 11.0 mph 26.0 mph 74% 0.00 in
23:45 55.2 °F 47.4 °F 29.74 in SW 10.0 mph 26.0 mph 75% 0.00 in
23:50 55.0 °F 47.2 °F 29.74 in SSW 7.0 mph 28.0 mph 75% 0.00 in
23:55 54.7 °F 46.9 °F 29.75 in SW 14.0 mph 20.0 mph 75% 0.00 in
Buffalo, New York, USA
Compliments of Weather Underground - 2.5 mb